Rattan, Oklahoma
Current Conditions -  °F | °C
As of 9:15 PM on Monday 26 Jan 2015 (Local Time) from KHHW Reporting Station
Clear Clear  
Wind Chill: 58°   Ceiling: Unl
Heat Index: 58°   Visibility: 10mi
Dew Point: 38°   Wind: 5mph
Humidity: 47%   Direction: 260°W
Pressure: 30.04"   Gusts: NA
Location:  34.2°N, 95.41°W
Report Text: KHHW 270315Z AUTO 26004KT 10SM CLR 15/03 A3004 RMK AO2 T01460033
Loading
Personal Weather Stations






























Interactive Weather Map New forecast layout! Learn more

10-Day Weather Forecast

Advertisements
Track Severe Weather on mobile